Главная страница
METAR-TAF:

METAR-TAF

Аэропорты :

Соннам, Республика Корея

широта: 37-26N, долгота: 127-07E, высота над уровнем моря: 20 м

Текущие метеонаблюдения

Эта сводка был подготовлена 1 час и 11 минут назад, в 13:00 UTC
Ветер 1 Узел от восточный
Температура 11°C
Влажность 94%
Давление 1021 hPa
Видимость: 6000 м
Рассеянная облачность на высоте 2500 фута
дымка,

METAR: RKSM 091300Z 10001KT 6000 BR BKN025 11/10 A3015

Время: 23:11 (14:11 UTC)

Прогноз

Эта сводка был подготовлена 3 часа и 11 минут назад, в 11:00 UTC
Прогноз действительный с 09-го 12 UTC до 10-го 18 UTC
Ветер 6 Узел от западно-северо-западный
Видимость: 8000 м
Рассеянная облачность на высоте 2500 фута
дымка
изменения
С 09-го 17 UTC до 09-го 18 UTC
Ветер 6 Узел от северо-северо-восточный
Видимость 10 км и более
Отдельные облака на высоте 3000 фута

TAF: RKSM 091100Z 0912/1018 30006KT 8000 BR BKN025 BECMG 0917/0918 03006KT 9999 NSW SCT030 TN03/0921Z TX13/1006Z

Метеонаблюдения и прогнозы для более 4000 аэропортов (сводки METAR и TAF).

Имеющиеся станции представлены на карте желтыми и красными точками.

Чтобы увидеть название станции, наведите на нее мышь.

Затем щелкните, чтобы увидеть метеонаблюдения и метеопрогнозы.

Управление картой: чтобы увеличить масштаб, щелкните зеленые кнопки с черным крестиком; чтобы уменьшить масштаб, щелкните зеленую кнопку с тире; для просмотра соседних карт щелкайте зеленые стрелки.


METAR-TAF: